createdAt,value
2017-10-16T09:51:26.920Z,24.50
2017-10-16T09:53:54.428Z,24.50
2017-10-16T09:56:21.956Z,24.40
2017-10-16T09:58:49.476Z,24.30
2017-10-16T10:01:17.036Z,24.30
2017-10-16T10:03:44.650Z,24.30
2017-10-16T10:06:12.185Z,24.20
2017-10-16T10:08:39.742Z,24.20
2017-10-16T10:11:07.265Z,24.10
2017-10-16T10:13:34.782Z,24.10
2017-10-16T10:16:02.325Z,24.10
2017-10-16T10:18:30.022Z,24.10
2017-10-16T10:20:57.607Z,24.10
2017-10-16T10:23:25.458Z,24.10
2017-10-16T10:25:53.045Z,24.10
2017-10-16T10:28:20.575Z,24.00
2017-10-16T10:30:48.087Z,24.00
2017-10-16T10:33:16.414Z,24.00
2017-10-16T10:35:43.920Z,23.90
2017-10-16T10:38:11.744Z,23.90
2017-10-16T10:40:39.477Z,24.00
2017-10-16T10:43:07.015Z,24.00
2017-10-16T10:45:34.572Z,24.00
2017-10-16T10:48:02.131Z,24.00
2017-10-16T10:50:29.683Z,24.10
2017-10-16T10:52:57.226Z,24.00
2017-10-16T10:55:24.730Z,24.10
2017-10-16T10:57:52.297Z,24.10
2017-10-16T11:00:20.078Z,24.10
2017-10-16T11:02:47.713Z,24.10
2017-10-16T11:05:15.256Z,24.10
2017-10-16T11:07:43.602Z,24.20
2017-10-16T11:10:11.145Z,24.10
2017-10-16T11:12:39.316Z,24.20
2017-10-16T11:15:06.908Z,24.20
2017-10-16T11:17:34.430Z,24.20
2017-10-16T11:20:01.949Z,24.20
2017-10-16T11:22:29.532Z,24.20
2017-10-16T11:24:57.053Z,24.20
2017-10-16T11:27:24.616Z,24.30
2017-10-16T11:29:52.330Z,24.30
2017-10-16T11:32:19.896Z,24.40
2017-10-16T11:34:47.443Z,24.40
2017-10-16T11:37:14.988Z,24.50
2017-10-16T11:39:42.697Z,24.50
2017-10-16T11:42:10.501Z,24.50
2017-10-16T11:44:38.910Z,24.60
2017-10-16T11:47:06.508Z,24.60
2017-10-16T11:49:34.085Z,24.60
2017-10-16T11:52:01.656Z,24.60
2017-10-16T11:54:29.265Z,24.70
2017-10-16T11:56:56.812Z,24.70
2017-10-16T11:59:24.360Z,24.70
2017-10-16T12:01:51.891Z,24.80
2017-10-16T12:04:19.540Z,24.80
2017-10-16T12:06:47.117Z,24.80
2017-10-16T12:09:14.713Z,24.80
2017-10-16T12:11:42.830Z,24.90
2017-10-16T12:14:10.638Z,24.90
2017-10-16T12:16:38.229Z,24.90
2017-10-16T12:19:05.777Z,24.90
2017-10-16T12:21:33.342Z,24.90
2017-10-16T12:24:00.924Z,25.00
2017-10-16T12:26:28.493Z,25.00
2017-10-16T12:28:56.015Z,25.00
2017-10-16T12:37:59.819Z,28.60
2017-10-16T12:40:27.333Z,29.50
2017-10-16T12:42:55.001Z,30.10
2017-10-16T12:45:22.581Z,30.60
2017-10-16T12:47:50.089Z,31.50
2017-10-16T12:50:18.400Z,33.10
2017-10-16T12:52:45.997Z,33.10
2017-10-16T12:55:13.570Z,33.50
2017-10-16T12:57:41.752Z,34.20
2017-10-16T13:00:09.329Z,34.80
2017-10-16T13:02:40.282Z,35.20
2017-10-16T13:05:28.880Z,35.20
2017-10-16T13:07:56.444Z,35.40
2017-10-16T13:10:24.101Z,35.20
2017-10-16T13:12:51.620Z,35.30
2017-10-16T13:15:19.131Z,35.50
2017-10-16T13:17:46.924Z,35.70
2017-10-16T13:20:14.820Z,35.70
2017-10-16T13:22:42.409Z,35.80
2017-10-16T13:25:09.985Z,35.90
2017-10-16T13:27:38.040Z,35.50
2017-10-16T13:30:05.578Z,35.70
2017-10-16T13:32:33.097Z,35.90
2017-10-16T13:35:00.640Z,36.30
2017-10-16T13:37:28.160Z,36.50
2017-10-16T13:39:55.669Z,36.50
2017-10-16T13:42:23.245Z,36.50
2017-10-16T13:44:50.753Z,36.30
2017-10-16T13:47:18.321Z,35.90
2017-10-16T13:49:45.816Z,35.70
2017-10-16T13:52:13.355Z,35.90
2017-10-16T13:54:40.937Z,35.90
2017-10-16T13:57:08.468Z,36.00
2017-10-16T13:59:36.771Z,36.00
2017-10-16T14:02:04.329Z,36.00
2017-10-16T14:04:35.641Z,36.30
2017-10-16T14:07:03.231Z,36.20
2017-10-16T14:09:30.796Z,36.20
2017-10-16T14:12:03.550Z,35.90
2017-10-16T14:14:31.268Z,35.90
2017-10-16T14:16:58.936Z,35.60
2017-10-16T14:19:26.567Z,35.30
2017-10-16T14:21:54.128Z,35.00
2017-10-16T14:24:21.629Z,34.80
2017-10-16T14:26:49.166Z,34.50
2017-10-16T14:29:16.718Z,34.20
2017-10-16T14:31:44.251Z,33.90
2017-10-16T14:34:12.601Z,33.60
2017-10-16T14:36:40.159Z,33.60
2017-10-16T14:39:07.689Z,33.30
2017-10-16T14:41:35.492Z,33.20
2017-10-16T14:44:03.023Z,33.30
2017-10-16T14:46:30.532Z,33.20
2017-10-16T14:48:58.074Z,33.20
2017-10-16T14:51:25.605Z,33.20
2017-10-16T14:53:53.338Z,32.80
2017-10-16T14:56:20.853Z,32.70
2017-10-16T14:58:48.420Z,32.60
2017-10-16T15:01:15.970Z,32.30
2017-10-16T15:03:43.467Z,32.00
2017-10-16T15:06:11.740Z,32.00
2017-10-16T15:08:39.325Z,31.90
2017-10-16T15:11:06.845Z,31.70
2017-10-16T15:13:35.125Z,31.40
2017-10-16T15:16:02.709Z,31.40
2017-10-16T15:18:30.211Z,31.30
2017-10-16T15:20:57.728Z,31.00
2017-10-16T15:23:25.314Z,30.80
2017-10-16T15:25:52.883Z,30.70
2017-10-16T15:28:20.466Z,30.50
2017-10-16T15:30:47.967Z,30.30
2017-10-16T15:33:15.504Z,30.10
2017-10-16T15:35:44.739Z,29.70
2017-10-16T15:38:13.232Z,29.40
2017-10-16T15:40:40.793Z,29.40
2017-10-16T15:43:08.296Z,29.20
2017-10-16T15:45:35.906Z,29.00
2017-10-16T15:48:03.440Z,28.70
2017-10-16T15:50:31.281Z,28.40
2017-10-16T15:52:58.853Z,28.10
2017-10-16T15:55:27.141Z,27.30
2017-10-16T15:57:54.691Z,27.30
2017-10-16T16:00:22.186Z,27.00
2017-10-16T16:02:49.696Z,26.70
2017-10-16T16:05:18.004Z,26.10
2017-10-16T16:07:45.529Z,26.00
2017-10-16T16:10:13.079Z,25.80
2017-10-16T16:12:40.611Z,25.40
2017-10-16T16:15:08.149Z,24.90
2017-10-16T16:17:35.737Z,24.50
2017-10-16T16:20:03.256Z,24.00
2017-10-16T16:22:30.819Z,23.60
2017-10-16T16:24:58.365Z,23.30
2017-10-16T16:27:25.929Z,22.90
2017-10-16T16:29:53.444Z,22.70
2017-10-16T16:32:20.964Z,22.40
2017-10-16T16:34:48.525Z,22.10
2017-10-16T16:37:16.090Z,21.80
2017-10-16T16:39:43.845Z,21.60
2017-10-16T16:42:11.430Z,21.30
2017-10-16T16:44:38.944Z,21.00
2017-10-16T16:47:06.480Z,20.50
2017-10-16T16:49:34.024Z,20.20
2017-10-16T16:52:01.553Z,19.90
2017-10-16T16:54:29.091Z,19.80
2017-10-16T16:56:56.644Z,19.50
2017-10-16T16:59:24.197Z,19.40
2017-10-16T17:01:51.706Z,19.20
2017-10-16T17:04:19.237Z,19.00
2017-10-16T17:06:46.801Z,18.90
2017-10-16T17:09:14.307Z,18.80
2017-10-16T17:11:41.803Z,18.70
2017-10-16T17:14:09.433Z,18.60
2017-10-16T17:16:37.000Z,18.50
2017-10-16T17:19:04.557Z,18.40
2017-10-16T17:21:32.114Z,18.40
2017-10-16T17:23:59.677Z,18.30
2017-10-16T17:26:27.192Z,18.20
2017-10-16T17:28:54.766Z,18.00
2017-10-16T17:31:22.269Z,17.90
2017-10-16T17:33:49.779Z,17.70
2017-10-16T17:36:17.359Z,17.70
2017-10-16T17:38:44.980Z,17.70
2017-10-16T17:41:12.535Z,17.50
2017-10-16T17:43:40.059Z,17.50
2017-10-16T17:46:07.645Z,17.40
2017-10-16T17:48:35.379Z,17.30
2017-10-16T17:51:03.007Z,17.10
2017-10-16T17:53:30.580Z,17.10
2017-10-16T17:55:58.089Z,17.10
2017-10-16T17:58:25.642Z,16.90
2017-10-16T18:00:53.159Z,16.80
2017-10-16T18:03:20.715Z,16.80
2017-10-16T18:05:48.239Z,16.80
2017-10-16T18:08:15.749Z,16.70
2017-10-16T18:10:43.297Z,16.70
2017-10-16T18:13:10.805Z,16.80
2017-10-16T18:15:38.361Z,16.70
2017-10-16T18:18:05.870Z,16.60
2017-10-16T18:20:33.403Z,16.40
2017-10-16T18:23:00.982Z,16.40
2017-10-16T18:25:28.483Z,16.30
2017-10-16T18:27:56.031Z,16.20
2017-10-16T18:30:23.586Z,16.00
2017-10-16T18:32:51.092Z,15.90
2017-10-16T18:35:18.739Z,15.90
2017-10-16T18:37:46.261Z,15.80
2017-10-16T18:40:13.829Z,15.90
2017-10-16T18:42:41.510Z,16.00
2017-10-16T18:45:09.019Z,16.30
2017-10-16T18:47:36.568Z,16.40
2017-10-16T18:50:04.102Z,16.50
2017-10-16T18:52:31.609Z,16.50
2017-10-16T18:54:59.153Z,16.50
2017-10-16T18:57:26.663Z,16.50
2017-10-16T18:59:54.221Z,16.50
2017-10-16T19:02:21.732Z,16.50
2017-10-16T19:04:49.270Z,16.60
2017-10-16T19:07:16.829Z,16.70
2017-10-16T19:09:44.399Z,16.80
2017-10-16T19:12:11.910Z,16.90
2017-10-16T19:14:39.421Z,17.00
2017-10-16T19:17:06.984Z,17.10
2017-10-16T19:19:34.498Z,17.20
2017-10-16T19:22:02.057Z,17.10
2017-10-16T19:24:29.566Z,17.10
2017-10-16T19:26:57.905Z,17.00
2017-10-16T19:29:25.437Z,17.00
2017-10-16T19:31:52.973Z,17.00
2017-10-16T19:34:20.491Z,16.80
2017-10-16T19:36:48.038Z,16.50
2017-10-16T19:39:15.559Z,16.50
2017-10-16T19:41:43.877Z,16.40
2017-10-16T19:44:11.395Z,16.40
2017-10-16T19:46:39.748Z,16.40
2017-10-16T19:49:07.260Z,16.40
2017-10-16T19:51:34.829Z,16.40
2017-10-16T19:54:02.328Z,16.30
2017-10-16T19:56:29.845Z,16.20
2017-10-16T19:58:57.385Z,16.10
2017-10-16T20:01:24.896Z,16.10
2017-10-16T20:03:52.453Z,16.10
2017-10-16T20:06:20.076Z,16.00
2017-10-16T20:08:47.612Z,16.00
2017-10-16T20:11:15.214Z,16.00
2017-10-16T20:13:42.799Z,16.00
2017-10-16T20:16:10.304Z,16.00
2017-10-16T20:18:37.879Z,15.90
2017-10-16T20:21:05.396Z,15.80
2017-10-16T20:23:33.672Z,15.70
2017-10-16T20:26:01.233Z,15.70
2017-10-16T20:28:30.440Z,15.70
2017-10-16T20:30:58.080Z,15.60
2017-10-16T20:33:25.604Z,15.70
2017-10-16T20:35:53.155Z,15.70
2017-10-16T20:38:20.724Z,15.80
2017-10-16T20:40:48.252Z,15.80
2017-10-16T20:43:15.810Z,15.70
2017-10-16T20:45:43.396Z,15.50
2017-10-16T20:48:11.012Z,15.30
2017-10-16T20:50:39.308Z,15.20
2017-10-16T20:53:06.859Z,15.20
2017-10-16T20:55:34.369Z,15.10
2017-10-16T20:58:02.007Z,15.00
2017-10-16T21:00:29.544Z,14.90
2017-10-16T21:02:57.107Z,15.00
2017-10-16T21:05:24.624Z,14.80
2017-10-16T21:07:52.186Z,14.90
2017-10-16T21:10:19.736Z,14.70
2017-10-16T21:12:47.276Z,14.60
2017-10-16T21:15:14.844Z,14.60
2017-10-16T21:17:42.351Z,14.40
2017-10-16T21:20:09.880Z,14.20
2017-10-16T21:22:37.447Z,14.10
2017-10-16T21:25:05.785Z,14.10
2017-10-16T21:27:33.287Z,14.10
2017-10-16T21:30:01.624Z,13.90
2017-10-16T21:32:29.137Z,13.90
2017-10-16T21:34:57.440Z,14.00
2017-10-16T21:37:24.981Z,14.00
2017-10-16T21:39:52.487Z,14.00
2017-10-16T21:42:20.057Z,13.80
2017-10-16T21:44:47.578Z,13.70
2017-10-16T21:47:15.108Z,13.70
2017-10-16T21:49:43.416Z,13.60
2017-10-16T21:52:10.957Z,13.50
2017-10-16T21:54:38.529Z,13.40
2017-10-16T21:57:06.032Z,13.40
2017-10-16T21:59:33.598Z,13.40
2017-10-16T22:02:01.177Z,13.40
2017-10-16T22:04:28.719Z,13.30
2017-10-16T22:06:56.256Z,13.30
2017-10-16T22:09:23.803Z,13.20
2017-10-16T22:11:51.358Z,13.10
2017-10-16T22:14:18.892Z,13.10
2017-10-16T22:16:46.435Z,13.10
2017-10-16T22:19:14.328Z,13.00
2017-10-16T22:21:41.904Z,13.00
2017-10-16T22:24:09.486Z,13.00
2017-10-16T22:26:36.999Z,13.00
2017-10-16T22:29:04.673Z,13.10
2017-10-16T22:31:32.221Z,13.00
2017-10-16T22:33:59.770Z,12.90
2017-10-16T22:36:27.292Z,12.70
2017-10-16T22:38:54.858Z,12.80
2017-10-16T22:41:22.372Z,12.80
2017-10-16T22:43:50.788Z,12.60
2017-10-16T22:46:18.284Z,12.60
2017-10-16T22:48:58.704Z,12.50
2017-10-16T22:51:26.213Z,12.50
2017-10-16T22:54:05.617Z,12.30
2017-10-16T22:56:33.968Z,12.20
2017-10-16T22:59:01.461Z,12.20
2017-10-16T23:01:29.805Z,12.20
2017-10-16T23:03:57.370Z,12.20
2017-10-16T23:06:24.903Z,12.20
2017-10-16T23:08:52.484Z,12.10
2017-10-16T23:11:20.037Z,12.10
2017-10-16T23:13:47.544Z,12.10
2017-10-16T23:16:15.861Z,12.10
2017-10-16T23:18:43.388Z,12.00
2017-10-16T23:21:11.673Z,11.90
2017-10-16T23:23:39.234Z,11.90
2017-10-16T23:26:06.745Z,11.90
2017-10-16T23:28:34.325Z,11.80
2017-10-16T23:31:01.904Z,11.70
2017-10-16T23:33:30.230Z,11.60
2017-10-16T23:35:57.748Z,11.60
2017-10-16T23:38:26.088Z,11.70
2017-10-16T23:40:53.619Z,11.70
2017-10-16T23:43:21.154Z,11.70
2017-10-16T23:45:48.662Z,11.70
2017-10-16T23:48:16.219Z,11.70
2017-10-16T23:50:43.732Z,11.70
2017-10-16T23:53:11.264Z,11.70
2017-10-16T23:55:39.555Z,11.70
2017-10-16T23:58:07.872Z,11.70
